createdAt,value
2018-11-10T00:01:30.994Z,52.57
2018-11-10T00:03:58.171Z,52.20
2018-11-10T00:06:25.550Z,50.00
2018-11-10T00:08:52.682Z,52.70
2018-11-10T00:11:19.912Z,51.37
2018-11-10T00:13:47.068Z,48.37
2018-11-10T00:16:14.250Z,50.93
2018-11-10T00:18:41.424Z,47.17
2018-11-10T00:21:08.575Z,45.23
2018-11-10T00:23:35.737Z,49.10
2018-11-10T00:26:02.908Z,42.60
2018-11-10T00:28:30.041Z,49.60
2018-11-10T00:30:57.746Z,48.07
2018-11-10T00:33:24.897Z,47.40
2018-11-10T00:35:52.039Z,47.80
2018-11-10T00:38:19.203Z,50.20
2018-11-10T00:40:46.350Z,48.30
2018-11-10T00:43:13.493Z,41.83
2018-11-10T00:45:40.656Z,46.47
2018-11-10T00:48:07.823Z,44.93
2018-11-10T00:50:35.017Z,47.97
2018-11-10T00:53:02.180Z,41.77
2018-11-10T00:55:29.397Z,51.17
2018-11-10T00:57:56.589Z,44.13
2018-11-10T01:00:23.763Z,47.97
2018-11-10T01:02:50.913Z,44.33
2018-11-10T01:05:18.091Z,48.27
2018-11-10T01:07:45.260Z,46.43
2018-11-10T01:10:13.075Z,39.03
2018-11-10T01:12:40.430Z,51.57
2018-11-10T01:15:09.246Z,48.77
2018-11-10T01:17:36.480Z,52.30
2018-11-10T01:20:03.824Z,45.50
2018-11-10T01:22:30.975Z,40.33
2018-11-10T01:24:58.118Z,44.83
2018-11-10T01:27:25.292Z,43.47
2018-11-10T01:29:52.427Z,45.43
2018-11-10T01:32:19.690Z,45.77
2018-11-10T01:34:46.855Z,41.47
2018-11-10T01:37:14.003Z,48.87
2018-11-10T01:39:41.144Z,44.67
2018-11-10T01:42:08.304Z,41.67
2018-11-10T01:44:35.473Z,44.73
2018-11-10T01:47:02.602Z,41.30
2018-11-10T01:49:29.757Z,40.23
2018-11-10T01:51:56.924Z,43.40
2018-11-10T01:54:24.068Z,44.63
2018-11-10T01:56:51.203Z,40.27
2018-11-10T01:59:18.349Z,39.00
2018-11-10T02:01:45.519Z,38.70
2018-11-10T02:04:12.743Z,39.33
2018-11-10T02:06:39.912Z,39.00
2018-11-10T02:09:07.968Z,40.07
2018-11-10T02:11:35.129Z,37.10
2018-11-10T02:14:02.463Z,37.53
2018-11-10T02:16:29.619Z,39.63
2018-11-10T02:18:56.770Z,39.50
2018-11-10T02:21:23.951Z,35.10
2018-11-10T02:23:51.132Z,41.00
2018-11-10T02:26:18.343Z,37.77
2018-11-10T02:28:45.543Z,36.50
2018-11-10T02:31:19.381Z,37.20
2018-11-10T02:33:46.583Z,38.07
2018-11-10T02:36:13.997Z,37.67
2018-11-10T02:38:41.163Z,42.40
2018-11-10T02:41:08.291Z,39.23
2018-11-10T02:43:35.460Z,36.73
2018-11-10T02:46:02.613Z,35.73
2018-11-10T02:48:29.759Z,39.43
2018-11-10T02:50:57.003Z,31.47
2018-11-10T02:53:24.149Z,39.20
2018-11-10T02:55:51.313Z,36.57
2018-11-10T02:58:18.436Z,38.00
2018-11-10T03:00:45.564Z,34.17
2018-11-10T03:03:12.752Z,39.00
2018-11-10T03:05:39.923Z,34.47
2018-11-10T03:08:07.068Z,35.67
2018-11-10T03:10:34.233Z,31.90
2018-11-10T03:13:01.355Z,45.67
2018-11-10T03:15:28.495Z,34.63
2018-11-10T03:17:55.645Z,37.97
2018-11-10T03:20:22.791Z,37.00
2018-11-10T03:22:49.960Z,36.13
2018-11-10T03:25:17.110Z,35.07
2018-11-10T03:27:44.281Z,46.13
2018-11-10T03:30:11.479Z,36.33
2018-11-10T03:32:38.636Z,32.53
2018-11-10T03:35:06.543Z,34.27
2018-11-10T03:37:33.737Z,35.80
2018-11-10T03:40:01.176Z,31.77
2018-11-10T03:42:28.324Z,34.97
2018-11-10T03:44:55.451Z,38.13
2018-11-10T03:47:22.572Z,36.97
2018-11-10T03:49:49.729Z,34.10
2018-11-10T03:52:16.876Z,34.63
2018-11-10T03:54:43.994Z,32.47
2018-11-10T03:57:11.128Z,34.90
2018-11-10T03:59:38.575Z,36.37
2018-11-10T04:02:05.824Z,34.00
2018-11-10T04:04:32.972Z,37.33
2018-11-10T04:07:00.172Z,34.70
2018-11-10T04:09:27.316Z,36.53
2018-11-10T04:11:54.456Z,34.13
2018-11-10T04:14:21.636Z,37.60
2018-11-10T04:16:48.792Z,34.10
2018-11-10T04:19:15.975Z,35.87
2018-11-10T04:21:43.115Z,36.83
2018-11-10T04:24:10.290Z,32.77
2018-11-10T04:26:37.415Z,37.43
2018-11-10T04:29:04.579Z,42.13
2018-11-10T04:31:31.716Z,36.93
2018-11-10T04:33:59.219Z,34.73
2018-11-10T04:36:26.437Z,36.10
2018-11-10T04:38:53.591Z,35.90
2018-11-10T04:41:20.759Z,43.50
2018-11-10T04:43:47.879Z,43.03
2018-11-10T04:46:15.141Z,38.17
2018-11-10T04:48:42.321Z,32.70
2018-11-10T04:51:09.470Z,39.87
2018-11-10T04:53:36.659Z,42.30
2018-11-10T04:56:04.216Z,37.97
2018-11-10T04:58:31.343Z,37.53
2018-11-10T05:00:58.478Z,39.87
2018-11-10T05:03:25.612Z,40.13
2018-11-10T05:05:52.772Z,41.53
2018-11-10T05:08:19.906Z,42.03
2018-11-10T05:10:47.064Z,43.67
2018-11-10T05:13:14.255Z,37.80
2018-11-10T05:15:41.430Z,45.93
2018-11-10T05:18:08.592Z,40.87
2018-11-10T05:20:35.740Z,40.30
2018-11-10T05:23:02.941Z,46.03
2018-11-10T05:25:30.099Z,50.20
2018-11-10T05:27:57.263Z,43.87
2018-11-10T05:30:24.425Z,45.03
2018-11-10T05:32:51.589Z,43.23
2018-11-10T05:35:18.895Z,49.93
2018-11-10T05:37:46.035Z,50.60
2018-11-10T05:40:13.195Z,44.30
2018-11-10T05:42:40.624Z,51.70
2018-11-10T05:45:07.939Z,57.40
2018-11-10T05:47:35.073Z,48.13
2018-11-10T05:50:02.268Z,53.17
2018-11-10T05:52:29.398Z,47.90
2018-11-10T05:54:56.791Z,56.93
2018-11-10T05:57:23.915Z,51.53
2018-11-10T05:59:51.096Z,53.47
2018-11-10T06:02:18.236Z,53.83
2018-11-10T06:04:45.367Z,50.70
2018-11-10T06:07:12.528Z,54.03
2018-11-10T06:09:39.689Z,51.87
2018-11-10T06:12:06.814Z,58.27
2018-11-10T06:14:33.968Z,55.20
2018-11-10T06:17:01.103Z,52.90
2018-11-10T06:19:28.245Z,56.93
2018-11-10T06:21:55.372Z,55.57
2018-11-10T06:24:22.532Z,62.10
2018-11-10T06:26:49.670Z,61.33
2018-11-10T06:29:16.821Z,58.23
2018-11-10T06:31:43.983Z,65.50
2018-11-10T06:34:11.176Z,61.70
2018-11-10T06:36:38.345Z,60.93
2018-11-10T06:39:07.543Z,59.93
2018-11-10T06:41:35.072Z,60.30
2018-11-10T06:44:02.208Z,58.40
2018-11-10T06:46:29.363Z,62.97
2018-11-10T06:48:56.501Z,64.10
2018-11-10T06:51:23.628Z,67.57
2018-11-10T06:53:50.764Z,68.80
2018-11-10T06:56:18.025Z,86.47
2018-11-10T06:58:45.147Z,75.87
2018-11-10T07:01:12.287Z,81.33
2018-11-10T07:03:39.432Z,65.43
2018-11-10T07:06:06.632Z,72.03
2018-11-10T07:08:33.784Z,61.13
2018-11-10T07:11:00.979Z,59.30
2018-11-10T07:13:28.116Z,67.40
2018-11-10T07:15:55.321Z,63.13
2018-11-10T07:18:22.406Z,61.50
2018-11-10T07:20:49.542Z,64.53
2018-11-10T07:23:16.707Z,52.63
2018-11-10T07:25:43.831Z,52.00
2018-11-10T07:28:11.014Z,63.23
2018-11-10T07:30:39.069Z,57.17
2018-11-10T07:33:06.219Z,60.10
2018-11-10T07:35:33.364Z,62.40
2018-11-10T07:38:00.533Z,61.20
2018-11-10T07:40:27.670Z,63.13
2018-11-10T07:42:54.832Z,54.83
2018-11-10T07:45:21.967Z,59.33
2018-11-10T07:47:49.175Z,56.07
2018-11-10T07:50:16.308Z,62.83
2018-11-10T07:52:43.455Z,60.93
2018-11-10T07:55:12.092Z,66.07
2018-11-10T07:57:39.299Z,56.60
2018-11-10T08:00:08.962Z,58.00
2018-11-10T08:02:36.115Z,54.73
2018-11-10T08:05:03.303Z,52.63
2018-11-10T08:07:30.446Z,55.63
2018-11-10T08:09:57.583Z,59.57
2018-11-10T08:12:24.715Z,60.23
2018-11-10T08:14:51.841Z,58.90
2018-11-10T08:17:19.035Z,58.67
2018-11-10T08:19:46.168Z,64.20
2018-11-10T08:22:13.294Z,60.67
2018-11-10T08:24:40.435Z,56.30
2018-11-10T08:27:07.586Z,63.70
2018-11-10T08:29:34.746Z,59.93
2018-11-10T08:32:01.926Z,70.73
2018-11-10T08:34:29.059Z,68.80
2018-11-10T08:36:56.201Z,62.83
2018-11-10T08:39:23.456Z,53.93
2018-11-10T08:41:50.503Z,63.50
2018-11-10T08:44:17.662Z,58.63
2018-11-10T08:46:44.823Z,58.93
2018-11-10T08:49:12.014Z,57.70
2018-11-10T08:51:39.313Z,55.57
2018-11-10T08:54:06.463Z,58.43
2018-11-10T08:56:33.628Z,54.30
2018-11-10T08:59:00.793Z,60.63
2018-11-10T09:01:27.950Z,60.67
2018-11-10T09:03:55.095Z,51.77
2018-11-10T09:06:22.248Z,64.93
2018-11-10T09:08:49.379Z,55.83
2018-11-10T09:11:16.507Z,54.43
2018-11-10T09:13:43.646Z,60.50
2018-11-10T09:16:10.803Z,55.70
2018-11-10T09:18:37.985Z,55.73
2018-11-10T09:21:05.503Z,53.60
2018-11-10T09:23:32.588Z,54.63
2018-11-10T09:25:59.744Z,58.60
2018-11-10T09:28:26.923Z,53.07
2018-11-10T09:30:54.078Z,51.13
2018-11-10T09:33:21.226Z,48.83
2018-11-10T09:35:48.395Z,56.43
2018-11-10T09:38:15.528Z,56.13
2018-11-10T09:40:42.660Z,58.27
2018-11-10T09:43:09.805Z,54.83
2018-11-10T09:45:36.984Z,53.17
2018-11-10T09:48:04.384Z,50.93
2018-11-10T09:50:31.601Z,50.17
2018-11-10T09:52:58.746Z,49.83
2018-11-10T09:55:25.906Z,56.33
2018-11-10T09:57:53.158Z,54.37
2018-11-10T10:00:21.266Z,49.70
2018-11-10T10:02:49.028Z,48.83
2018-11-10T10:05:15.778Z,51.03
2018-11-10T10:07:43.464Z,49.50
2018-11-10T10:10:12.244Z,40.40
2018-11-10T10:12:39.495Z,42.57
2018-11-10T10:15:08.193Z,44.67
2018-11-10T10:17:35.414Z,43.10
2018-11-10T10:20:02.651Z,44.07
2018-11-10T10:22:30.076Z,44.67
2018-11-10T10:24:57.393Z,44.13
2018-11-10T10:27:24.559Z,43.97
2018-11-10T10:29:51.701Z,49.87
2018-11-10T10:32:18.830Z,51.50
2018-11-10T10:34:46.221Z,43.77
2018-11-10T10:37:13.311Z,40.33
2018-11-10T10:39:40.453Z,42.03
2018-11-10T10:42:07.621Z,44.97
2018-11-10T10:44:34.754Z,44.17
2018-11-10T10:47:01.889Z,39.47
2018-11-10T10:49:29.038Z,42.30
2018-11-10T10:51:56.196Z,42.63
2018-11-10T10:54:23.427Z,40.03
2018-11-10T10:56:50.631Z,36.47
2018-11-10T10:59:19.186Z,40.93
2018-11-10T11:01:52.147Z,42.17
2018-11-10T11:04:25.138Z,47.37
2018-11-10T11:06:52.371Z,40.17
2018-11-10T11:09:19.629Z,40.73
2018-11-10T11:11:46.800Z,40.47
2018-11-10T11:14:13.963Z,39.07
2018-11-10T11:16:41.144Z,38.27
2018-11-10T11:19:08.356Z,38.17
2018-11-10T11:21:35.531Z,37.47
2018-11-10T11:24:02.687Z,43.97
2018-11-10T11:26:29.859Z,35.10
2018-11-10T11:28:57.054Z,43.10
2018-11-10T11:31:24.243Z,38.80
2018-11-10T11:33:51.419Z,39.67
2018-11-10T11:36:18.515Z,37.73
2018-11-10T11:38:45.639Z,40.73
2018-11-10T11:41:12.918Z,37.67
2018-11-10T11:43:39.944Z,44.97
2018-11-10T11:46:07.090Z,45.93
2018-11-10T11:48:34.740Z,43.97
2018-11-10T11:51:01.881Z,40.33
2018-11-10T11:53:29.028Z,42.20
2018-11-10T11:55:56.153Z,36.43
2018-11-10T11:58:23.364Z,42.90
2018-11-10T12:00:50.524Z,37.63
2018-11-10T12:03:17.731Z,36.80
2018-11-10T12:05:44.879Z,40.67
2018-11-10T12:08:12.052Z,32.90
2018-11-10T12:10:39.237Z,36.57
2018-11-10T12:13:06.391Z,36.80
2018-11-10T12:15:33.538Z,40.03
2018-11-10T12:18:00.663Z,37.50
2018-11-10T12:20:27.800Z,36.10
2018-11-10T12:22:54.931Z,41.50
2018-11-10T12:25:22.080Z,39.63
2018-11-10T12:27:49.236Z,45.07
2018-11-10T12:30:16.363Z,35.37
2018-11-10T12:32:43.548Z,36.50
2018-11-10T12:35:11.943Z,39.80
2018-11-10T12:37:39.095Z,51.43
2018-11-10T12:40:07.788Z,37.97
2018-11-10T12:42:35.239Z,41.00
2018-11-10T12:45:02.489Z,40.33
2018-11-10T12:47:29.739Z,43.40
2018-11-10T12:49:56.843Z,37.60
2018-11-10T12:52:23.980Z,38.63
2018-11-10T12:54:51.233Z,33.73
2018-11-10T12:57:18.319Z,38.53
2018-11-10T12:59:45.458Z,35.77
2018-11-10T13:02:12.633Z,36.33
2018-11-10T13:04:39.778Z,40.67
2018-11-10T13:07:06.995Z,42.73
2018-11-10T13:09:34.076Z,38.57
2018-11-10T13:12:01.283Z,39.43
2018-11-10T13:14:28.423Z,42.10
2018-11-10T13:16:55.558Z,47.33
2018-11-10T13:19:22.705Z,39.67
2018-11-10T13:21:49.878Z,45.20
2018-11-10T13:24:17.152Z,38.80
2018-11-10T13:26:44.260Z,35.83
2018-11-10T13:29:11.408Z,54.73
2018-11-10T13:31:38.627Z,45.60
2018-11-10T13:34:05.702Z,39.80
2018-11-10T13:36:32.835Z,34.40
2018-11-10T13:39:00.000Z,37.43
2018-11-10T13:41:27.135Z,38.73
2018-11-10T13:43:54.427Z,39.40
2018-11-10T13:46:21.456Z,39.07
2018-11-10T13:48:48.943Z,34.13
2018-11-10T13:51:16.443Z,37.90
2018-11-10T13:53:43.281Z,37.93
2018-11-10T13:56:10.439Z,35.10
2018-11-10T13:58:37.589Z,36.17
2018-11-10T14:01:05.090Z,34.60
2018-11-10T14:03:32.967Z,37.37
2018-11-10T14:06:00.155Z,38.60
2018-11-10T14:08:27.295Z,44.30
2018-11-10T14:10:54.471Z,36.57
2018-11-10T14:13:21.610Z,36.73
2018-11-10T14:15:48.776Z,36.37
2018-11-10T14:18:15.922Z,35.57
2018-11-10T14:20:43.227Z,34.07
2018-11-10T14:23:10.251Z,37.27
2018-11-10T14:25:37.411Z,33.07
2018-11-10T14:28:04.868Z,36.43
2018-11-10T14:30:32.028Z,36.20
2018-11-10T14:32:59.170Z,32.10
2018-11-10T14:35:26.331Z,38.13
2018-11-10T14:37:53.473Z,38.77
2018-11-10T14:40:20.652Z,36.33
2018-11-10T14:42:47.804Z,39.50
2018-11-10T14:45:16.377Z,36.70
2018-11-10T14:47:44.028Z,35.73
2018-11-10T14:50:12.184Z,36.20
2018-11-10T14:52:39.649Z,36.73
2018-11-10T14:55:07.315Z,33.80
2018-11-10T14:57:34.592Z,34.00
2018-11-10T15:00:01.944Z,29.50
2018-11-10T15:02:29.101Z,33.20
2018-11-10T15:04:56.301Z,35.70
2018-11-10T15:07:23.431Z,39.70
2018-11-10T15:09:50.617Z,40.67
2018-11-10T15:12:17.894Z,35.63
2018-11-10T15:14:44.943Z,34.43
2018-11-10T15:17:12.093Z,34.83
2018-11-10T15:19:39.246Z,32.63
2018-11-10T15:22:06.596Z,36.37
2018-11-10T15:24:33.750Z,36.77
2018-11-10T15:27:00.935Z,43.20
2018-11-10T15:29:28.075Z,37.30
2018-11-10T15:31:55.230Z,35.43
2018-11-10T15:34:29.134Z,32.73
2018-11-10T15:36:56.401Z,31.43
2018-11-10T15:39:23.563Z,35.70
2018-11-10T15:41:50.703Z,28.73
2018-11-10T15:44:17.834Z,29.43
2018-11-10T15:46:44.955Z,33.67
2018-11-10T15:49:12.114Z,30.53
2018-11-10T15:51:39.483Z,29.73
2018-11-10T15:54:06.660Z,28.10
2018-11-10T15:56:33.844Z,26.23
2018-11-10T15:59:01.081Z,32.67
2018-11-10T16:01:28.236Z,34.57
2018-11-10T16:03:55.396Z,24.40
2018-11-10T16:06:22.555Z,24.77
2018-11-10T16:08:49.716Z,28.83
2018-11-10T16:11:16.908Z,27.07
2018-11-10T16:13:44.092Z,26.57
2018-11-10T16:16:11.232Z,31.83
2018-11-10T16:18:45.061Z,29.37
2018-11-10T16:21:12.672Z,30.10
2018-11-10T16:23:39.794Z,27.80
2018-11-10T16:26:06.949Z,29.50
2018-11-10T16:28:34.164Z,25.47
2018-11-10T16:31:01.275Z,25.77
2018-11-10T16:33:28.425Z,28.90
2018-11-10T16:35:55.584Z,28.60
2018-11-10T16:38:22.788Z,23.83
2018-11-10T16:40:49.956Z,28.67
2018-11-10T16:43:17.119Z,21.00
2018-11-10T16:45:44.283Z,29.00
2018-11-10T16:48:11.424Z,24.37
2018-11-10T16:50:38.563Z,25.80
2018-11-10T16:53:05.756Z,22.60
2018-11-10T16:55:32.927Z,20.17
2018-11-10T16:58:00.074Z,22.10
2018-11-10T17:00:27.216Z,23.30
2018-11-10T17:02:54.370Z,18.03
2018-11-10T17:05:21.542Z,23.67
2018-11-10T17:07:48.670Z,21.67
2018-11-10T17:10:16.983Z,19.87
2018-11-10T17:12:44.148Z,23.83
2018-11-10T17:15:11.499Z,21.07
2018-11-10T17:17:38.790Z,22.93
2018-11-10T17:20:08.286Z,21.80
2018-11-10T17:22:35.829Z,22.30
2018-11-10T17:25:02.930Z,24.03
2018-11-10T17:27:30.124Z,22.53
2018-11-10T17:29:57.266Z,17.43
2018-11-10T17:32:24.407Z,23.33
2018-11-10T17:34:51.540Z,23.27
2018-11-10T17:37:18.646Z,24.00
2018-11-10T17:39:45.903Z,27.33
2018-11-10T17:42:12.958Z,22.30
2018-11-10T17:44:40.059Z,29.67
2018-11-10T17:47:07.179Z,28.30
2018-11-10T17:49:34.505Z,23.80
2018-11-10T17:52:02.257Z,20.67
2018-11-10T17:54:29.317Z,21.77
2018-11-10T17:56:56.439Z,25.93
2018-11-10T17:59:23.725Z,19.83
2018-11-10T18:01:50.993Z,19.90
2018-11-10T18:04:18.031Z,20.67
2018-11-10T18:06:45.179Z,22.10
2018-11-10T18:09:12.337Z,22.93
2018-11-10T18:11:39.978Z,17.47
2018-11-10T18:14:07.443Z,22.13
2018-11-10T18:16:34.595Z,22.27
2018-11-10T18:19:01.919Z,18.33
2018-11-10T18:21:29.304Z,20.30
2018-11-10T18:23:56.425Z,19.80
2018-11-10T18:26:23.546Z,18.27
2018-11-10T18:28:50.672Z,17.07
2018-11-10T18:31:17.803Z,20.60
2018-11-10T18:33:44.944Z,15.83
2018-11-10T18:36:12.072Z,15.80
2018-11-10T18:38:39.204Z,23.77
2018-11-10T18:41:06.340Z,16.97
2018-11-10T18:43:33.460Z,15.93
2018-11-10T18:46:00.611Z,20.43
2018-11-10T18:48:27.742Z,16.27
2018-11-10T18:50:54.875Z,18.93
2018-11-10T18:53:22.221Z,17.83
2018-11-10T18:55:49.351Z,18.50
2018-11-10T18:58:16.531Z,18.00
2018-11-10T19:00:43.638Z,18.50
2018-11-10T19:03:10.760Z,17.33
2018-11-10T19:05:37.878Z,20.00
2018-11-10T19:08:05.080Z,14.87
2018-11-10T19:10:32.235Z,16.37
2018-11-10T19:12:59.400Z,21.87
2018-11-10T19:15:26.563Z,17.80
2018-11-10T19:17:53.695Z,16.53
2018-11-10T19:20:20.855Z,15.43
2018-11-10T19:22:48.041Z,12.97
2018-11-10T19:25:15.134Z,14.60
2018-11-10T19:27:42.266Z,14.73
2018-11-10T19:30:12.336Z,14.80
2018-11-10T19:32:39.488Z,19.63
2018-11-10T19:35:06.643Z,14.60
2018-11-10T19:37:33.792Z,13.07
2018-11-10T19:40:01.035Z,11.07
2018-11-10T19:42:28.180Z,11.57
2018-11-10T19:44:55.316Z,13.40
2018-11-10T19:47:22.447Z,17.77
2018-11-10T19:49:49.570Z,12.63
2018-11-10T19:52:17.269Z,15.33
2018-11-10T19:54:44.511Z,14.77
2018-11-10T19:57:11.635Z,13.47
2018-11-10T19:59:38.766Z,11.87
2018-11-10T20:02:06.060Z,10.57
2018-11-10T20:04:33.203Z,13.23
2018-11-10T20:07:00.348Z,12.50
2018-11-10T20:09:27.484Z,12.80
2018-11-10T20:11:54.610Z,13.10
2018-11-10T20:14:21.723Z,12.40
2018-11-10T20:16:48.853Z,12.73
2018-11-10T20:19:15.971Z,14.93
2018-11-10T20:21:43.086Z,15.20
2018-11-10T20:24:10.280Z,10.27
2018-11-10T20:26:37.448Z,13.23
2018-11-10T20:29:05.107Z,19.03
2018-11-10T20:31:32.248Z,15.73
2018-11-10T20:33:59.379Z,17.33
2018-11-10T20:36:26.486Z,16.33
2018-11-10T20:38:53.802Z,13.83
2018-11-10T20:41:20.868Z,16.63
2018-11-10T20:43:47.986Z,12.70
2018-11-10T20:46:15.194Z,12.50
2018-11-10T20:48:42.332Z,14.63
2018-11-10T20:51:09.500Z,16.30
2018-11-10T20:53:36.616Z,24.47
2018-11-10T20:56:04.243Z,14.33
2018-11-10T20:58:31.379Z,19.80
2018-11-10T21:00:58.533Z,15.77
2018-11-10T21:03:25.653Z,14.97
2018-11-10T21:05:52.945Z,20.87
2018-11-10T21:08:19.930Z,15.70
2018-11-10T21:10:47.075Z,16.40
2018-11-10T21:13:14.208Z,15.27
2018-11-10T21:15:41.357Z,21.57
2018-11-10T21:18:08.554Z,23.30
2018-11-10T21:20:35.718Z,19.47
2018-11-10T21:23:02.854Z,19.07
2018-11-10T21:25:29.975Z,27.23
2018-11-10T21:27:57.100Z,13.97
2018-11-10T21:30:24.244Z,13.87
2018-11-10T21:32:51.376Z,23.60
2018-11-10T21:35:18.589Z,14.73
2018-11-10T21:37:45.679Z,18.67
2018-11-10T21:40:17.029Z,15.87
2018-11-10T21:42:44.670Z,17.27
2018-11-10T21:45:12.645Z,16.80
2018-11-10T21:47:39.824Z,18.57
2018-11-10T21:50:09.404Z,28.60
2018-11-10T21:52:36.680Z,17.87
2018-11-10T21:55:04.112Z,13.57
2018-11-10T21:57:31.235Z,25.47
2018-11-10T21:59:58.404Z,12.90
2018-11-10T22:02:25.543Z,13.03
2018-11-10T22:04:52.668Z,12.90
2018-11-10T22:07:19.784Z,12.57
2018-11-10T22:09:46.976Z,13.03
2018-11-10T22:12:14.069Z,15.93
2018-11-10T22:14:41.195Z,13.93
2018-11-10T22:17:08.371Z,14.50
2018-11-10T22:19:35.506Z,14.67
2018-11-10T22:22:02.724Z,15.90
2018-11-10T22:24:29.846Z,20.60
2018-11-10T22:26:56.980Z,18.90
2018-11-10T22:29:24.113Z,16.43
2018-11-10T22:31:51.242Z,19.20
2018-11-10T22:34:18.399Z,16.40
2018-11-10T22:36:45.515Z,19.30
2018-11-10T22:39:12.651Z,17.00
2018-11-10T22:41:39.811Z,18.27
2018-11-10T22:44:06.950Z,12.93
2018-11-10T22:46:34.085Z,13.20
2018-11-10T22:49:01.213Z,15.63
2018-11-10T22:51:28.340Z,14.07
2018-11-10T22:53:55.482Z,18.00
2018-11-10T22:56:22.607Z,13.03
2018-11-10T22:58:49.747Z,10.60
2018-11-10T23:01:16.883Z,13.00
2018-11-10T23:03:44.037Z,17.10
2018-11-10T23:06:11.148Z,9.60
2018-11-10T23:08:38.280Z,12.47
2018-11-10T23:11:05.463Z,16.57
2018-11-10T23:13:32.738Z,12.17
2018-11-10T23:15:59.876Z,13.77
2018-11-10T23:18:27.172Z,16.17
2018-11-10T23:20:54.532Z,20.07
2018-11-10T23:23:21.782Z,16.13
2018-11-10T23:25:48.949Z,18.60
2018-11-10T23:28:16.092Z,20.13
2018-11-10T23:30:43.244Z,18.27
2018-11-10T23:33:10.396Z,19.70
2018-11-10T23:35:37.626Z,16.93
2018-11-10T23:38:04.813Z,22.00
2018-11-10T23:40:31.962Z,18.27
2018-11-10T23:42:59.171Z,17.63
2018-11-10T23:45:26.376Z,17.37
2018-11-10T23:47:53.527Z,12.80
2018-11-10T23:50:20.769Z,16.73
2018-11-10T23:52:47.969Z,15.93
2018-11-10T23:55:15.775Z,16.47
2018-11-10T23:57:42.957Z,16.00
